Time;durP1;ratioP1;P1;durP2;ratioP2;P2;SDS_P1;SDS_P2;PMS_P1;PMS_P2;Temp;Humidity;BMP_temperature;BMP_pressure;BME280_temperature;BME280_humidity;BME280_pressure;Samples;Min_cycle;Max_cycle;Signal;HPM_P1;HPM_P2
2021/06/03 00:00:19;;;;;;;;;;;;;;;14.10;100.00;99029.56;5055261;28;19925;-80
2021/06/03 00:02:47;;;;;;;;;;;;;;;14.06;100.00;99020.44;5054668;28;20017;-80
2021/06/03 00:05:15;;;;;;;;;;;;;;;14.01;100.00;99030.22;5055404;28;19925;-80
2021/06/03 00:07:42;;;;;;;;;;;;;;;13.90;100.00;99031.78;5054274;28;20356;-80
2021/06/03 00:10:10;;;;;;;;;;;;;;;13.91;100.00;99031.31;5055302;28;20006;-80
2021/06/03 00:12:37;;;;;;;;;;;;;;;13.92;100.00;99038.50;5068052;28;19925;-80
2021/06/03 00:15:09;;;;;;;;;;;;;;;13.97;100.00;99039.97;5033982;28;19979;-80
2021/06/03 00:17:36;;;;;;;;;;;;;;;14.00;100.00;99037.06;5039376;28;20279;-80
2021/06/03 00:20:12;;;;;;;;;;;;;;;14.04;100.00;99039.78;5037191;28;19925;-80
2021/06/03 00:22:39;;;;;;;;;;;;;;;14.00;100.00;99050.31;5054899;28;20016;-79
2021/06/03 00:25:07;;;;;;;;;;;;;;;13.96;100.00;99047.63;5054187;28;20402;-80
2021/06/03 00:27:34;;;;;;;;;;;;;;;13.94;100.00;99040.88;5054839;28;19929;-80
2021/06/03 00:30:03;;;;;;;;;;;;;;;13.90;100.00;99051.44;5053376;28;19928;-80
2021/06/03 00:32:31;;;;;;;;;;;;;;;13.88;100.00;99048.28;5054756;28;19928;-80
2021/06/03 00:34:58;;;;;;;;;;;;;;;13.84;100.00;99047.59;5053688;28;20012;-80
2021/06/03 00:37:25;;;;;;;;;;;;;;;13.81;100.00;99045.69;5054481;28;20513;-80
2021/06/03 00:39:52;;;;;;;;;;;;;;;13.76;100.00;99043.41;5054316;28;19932;-80
2021/06/03 00:42:20;;;;;;;;;;;;;;;13.69;100.00;99046.44;5086359;28;19924;-80
2021/06/03 00:44:47;;;;;;;;;;;;;;;13.70;100.00;99056.44;5053395;28;20431;-80
2021/06/03 00:47:14;;;;;;;;;;;;;;;13.65;100.00;99056.97;5053375;28;19925;-80
2021/06/03 00:49:42;;;;;;;;;;;;;;;13.58;100.00;99065.59;5053242;28;19964;-80
2021/06/03 00:52:09;;;;;;;;;;;;;;;13.57;100.00;99066.84;5053158;28;20355;-80
2021/06/03 00:54:36;;;;;;;;;;;;;;;13.52;100.00;99061.75;5053490;28;20275;-80
2021/06/03 00:57:04;;;;;;;;;;;;;;;13.44;100.00;99058.34;5053871;28;19925;-80
2021/06/03 00:59:31;;;;;;;;;;;;;;;13.43;100.00;99050.38;5053032;28;19935;-80
2021/06/03 01:01:58;;;;;;;;;;;;;;;13.40;100.00;99056.88;5032975;28;19925;-80
2021/06/03 01:04:30;;;;;;;;;;;;;;;13.38;100.00;99056.53;5051387;28;19925;-80
2021/06/03 01:06:57;;;;;;;;;;;;;;;13.36;100.00;99051.34;5054124;28;19932;-80
2021/06/03 01:09:28;;;;;;;;;;;;;;;13.33;100.00;99052.25;5053725;28;19924;-80
2021/06/03 01:12:10;;;;;;;;;;;;;;;13.25;100.00;99053.69;5052556;28;20669;-80
2021/06/03 01:14:40;;;;;;;;;;;;;;;13.19;100.00;99057.47;5070107;28;20062;-80
2021/06/03 01:17:08;;;;;;;;;;;;;;;13.22;100.00;99062.19;5053775;28;20164;-80
2021/06/03 01:19:37;;;;;;;;;;;;;;;13.23;100.00;99064.56;5051579;28;19925;-80
2021/06/03 01:22:11;;;;;;;;;;;;;;;13.20;100.00;99065.44;5052320;28;20049;-79
2021/06/03 01:24:48;;;;;;;;;;;;;;;13.19;100.00;99058.22;5084573;28;20161;-80
2021/06/03 01:27:21;;;;;;;;;;;;;;;13.21;100.00;99066.22;5085850;28;20018;-80
2021/06/03 01:30:14;;;;;;;;;;;;;;;13.19;100.00;99065.88;5084539;28;20455;-80
2021/06/03 01:33:02;;;;;;;;;;;;;;;13.06;100.00;99070.59;5052410;28;19929;-80
2021/06/03 01:35:34;;;;;;;;;;;;;;;13.01;100.00;99073.97;5048983;28;20273;-80
2021/06/03 01:38:06;;;;;;;;;;;;;;;13.00;100.00;99072.38;5053183;28;19932;-80
2021/06/03 01:40:35;;;;;;;;;;;;;;;12.98;100.00;99063.59;5053412;28;20374;-80
2021/06/03 01:43:04;;;;;;;;;;;;;;;12.95;100.00;99064.47;5053321;28;20075;-80
2021/06/03 01:45:31;;;;;;;;;;;;;;;12.94;100.00;99074.09;5085628;28;19924;-80
2021/06/03 01:47:59;;;;;;;;;;;;;;;12.87;100.00;99069.47;5053326;28;19925;-80
2021/06/03 01:50:28;;;;;;;;;;;;;;;12.81;100.00;99067.63;5052053;28;19936;-80
2021/06/03 01:52:58;;;;;;;;;;;;;;;12.77;100.00;99071.31;5053047;28;19931;-80
2021/06/03 01:55:26;;;;;;;;;;;;;;;12.74;100.00;99069.38;5052236;28;20283;-80
2021/06/03 01:57:53;;;;;;;;;;;;;;;12.71;100.00;99069.44;5053108;28;19932;-80
2021/06/03 02:00:26;;;;;;;;;;;;;;;12.71;100.00;99075.06;5052110;28;19964;-80
2021/06/03 02:02:56;;;;;;;;;;;;;;;12.71;100.00;99078.66;5051773;28;19933;-80
2021/06/03 02:05:27;;;;;;;;;;;;;;;12.66;100.00;99076.38;5052126;28;19987;-80
2021/06/03 02:07:57;;;;;;;;;;;;;;;12.77;100.00;99082.53;5087981;28;19924;-80
2021/06/03 02:10:25;;;;;;;;;;;;;;;12.87;100.00;99091.09;5057579;28;19924;-79
2021/06/03 02:12:59;;;;;;;;;;;;;;;12.85;100.00;99093.56;5057097;28;19971;-80
2021/06/03 02:15:30;;;;;;;;;;;;;;;12.84;100.00;99092.78;5056302;28;19928;-79
2021/06/03 02:17:59;;;;;;;;;;;;;;;12.81;100.00;99084.44;5056021;28;20063;-80
2021/06/03 02:20:29;;;;;;;;;;;;;;;12.87;100.00;99091.09;5056059;28;19925;-80
2021/06/03 02:22:58;;;;;;;;;;;;;;;12.89;100.00;99088.66;5055411;28;19931;-79
2021/06/03 02:25:26;;;;;;;;;;;;;;;12.90;100.00;99096.63;5055876;28;19924;-80
2021/06/03 02:27:54;;;;;;;;;;;;;;;12.90;100.00;99101.44;5057002;28;19924;-79
2021/06/03 02:30:23;;;;;;;;;;;;;;;12.96;100.00;99099.69;5049041;28;19925;-80
2021/06/03 02:32:52;;;;;;;;;;;;;;;12.91;100.00;99103.00;5056292;28;19932;-80
2021/06/03 02:35:22;;;;;;;;;;;;;;;12.93;100.00;99100.56;5056731;28;19932;-80
2021/06/03 02:37:50;;;;;;;;;;;;;;;12.98;100.00;99102.84;5055260;28;19924;-80
2021/06/03 02:40:20;;;;;;;;;;;;;;;12.99;100.00;99101.63;5055282;28;19929;-80
2021/06/03 02:42:49;;;;;;;;;;;;;;;13.12;100.00;99102.50;5057044;28;19925;-80
2021/06/03 02:45:23;;;;;;;;;;;;;;;13.20;100.00;99104.72;5056813;28;19924;-80
2021/06/03 02:47:51;;;;;;;;;;;;;;;13.21;100.00;99102.72;5056800;28;19924;-80
2021/06/03 02:50:22;;;;;;;;;;;;;;;13.19;100.00;99107.97;5056459;28;20833;-80
2021/06/03 02:52:50;;;;;;;;;;;;;;;13.14;100.00;99100.84;5055293;28;19995;-80
2021/06/03 02:55:21;;;;;;;;;;;;;;;13.18;100.00;99097.94;5055306;28;20022;-80
2021/06/03 02:57:54;;;;;;;;;;;;;;;13.06;100.00;99090.25;5055462;28;19925;-80
2021/06/03 03:00:25;;;;;;;;;;;;;;;13.04;100.00;99092.72;5088628;28;19925;-80
2021/06/03 03:02:55;;;;;;;;;;;;;;;12.98;100.00;99091.63;5071634;28;20058;-80
2021/06/03 03:05:23;;;;;;;;;;;;;;;12.95;100.00;99100.94;5054665;28;20368;-80
2021/06/03 03:07:50;;;;;;;;;;;;;;;12.94;100.00;99100.13;5053627;28;19925;-80
2021/06/03 03:10:19;;;;;;;;;;;;;;;12.92;100.00;99099.00;5054854;28;20375;-80
2021/06/03 03:12:49;;;;;;;;;;;;;;;12.98;100.00;99097.25;5054816;28;19928;-80
2021/06/03 03:15:17;;;;;;;;;;;;;;;12.91;100.00;99094.59;5056055;28;19947;-80
2021/06/03 03:17:47;;;;;;;;;;;;;;;12.92;100.00;99088.56;5087813;28;19960;-80
2021/06/03 03:20:15;;;;;;;;;;;;;;;12.96;100.00;99094.88;5055298;28;20367;-80
2021/06/03 03:22:52;;;;;;;;;;;;;;;12.96;100.00;99094.09;5055986;28;20138;-80
2021/06/03 03:25:21;;;;;;;;;;;;;;;13.10;100.00;99108.56;5056113;28;20368;-80
2021/06/03 03:27:49;;;;;;;;;;;;;;;13.03;100.00;99105.16;5054942;28;19924;-80
2021/06/03 03:30:18;;;;;;;;;;;;;;;13.04;100.00;99107.50;5055836;28;20284;-80
2021/06/03 03:32:46;;;;;;;;;;;;;;;13.08;100.00;99107.44;5054272;28;19936;-79
2021/06/03 03:35:14;;;;;;;;;;;;;;;13.10;100.00;99105.00;5055517;28;19929;-80
2021/06/03 03:37:43;;;;;;;;;;;;;;;13.14;100.00;99109.28;5087924;28;19978;-80
2021/06/03 03:40:11;;;;;;;;;;;;;;;13.17;100.00;99113.22;5034744;28;19925;-80
2021/06/03 03:42:39;;;;;;;;;;;;;;;13.18;100.00;99126.78;5049467;28;20379;-80
2021/06/03 03:45:07;;;;;;;;;;;;;;;13.18;100.00;99121.19;5055570;28;19925;-80
2021/06/03 03:47:36;;;;;;;;;;;;;;;13.26;100.00;99127.41;5055831;28;19973;-80
2021/06/03 03:50:06;;;;;;;;;;;;;;;13.37;100.00;99128.72;5054407;28;19925;-80
2021/06/03 03:52:33;;;;;;;;;;;;;;;13.56;100.00;99127.00;5055536;28;19936;-80
2021/06/03 03:55:02;;;;;;;;;;;;;;;13.56;100.00;99133.41;5054038;28;19956;-80
2021/06/03 03:57:30;;;;;;;;;;;;;;;13.39;100.00;99128.28;5055401;28;20402;-79
2021/06/03 04:00:03;;;;;;;;;;;;;;;13.27;100.00;99131.81;5038390;28;20390;-80
2021/06/03 04:02:31;;;;;;;;;;;;;;;13.29;100.00;99140.56;5054095;28;19978;-80
2021/06/03 04:04:58;;;;;;;;;;;;;;;13.36;100.00;99143.19;5055115;28;20455;-80
2021/06/03 04:07:25;;;;;;;;;;;;;;;13.46;100.00;99142.91;5053729;28;20327;-80
2021/06/03 04:09:53;;;;;;;;;;;;;;;13.43;100.00;99138.19;5053787;28;20272;-80
2021/06/03 04:12:21;;;;;;;;;;;;;;;13.45;100.00;99137.75;5055168;28;19928;-80
2021/06/03 04:14:50;;;;;;;;;;;;;;;13.37;100.00;99147.56;5055189;28;20423;-80
2021/06/03 04:17:17;;;;;;;;;;;;;;;13.38;100.00;99140.72;5053529;28;20414;-80
2021/06/03 04:19:47;;;;;;;;;;;;;;;13.34;100.00;99149.25;5053760;28;19956;-80
2021/06/03 04:22:14;;;;;;;;;;;;;;;13.37;100.00;99147.56;5053424;28;19932;-80
2021/06/03 04:24:41;;;;;;;;;;;;;;;13.24;100.00;99143.91;5053576;28;19936;-80
2021/06/03 04:27:09;;;;;;;;;;;;;;;13.22;100.00;99143.56;5055052;28;19971;-80
2021/06/03 04:29:36;;;;;;;;;;;;;;;13.23;100.00;99153.53;5086941;28;19925;-80
2021/06/03 04:32:05;;;;;;;;;;;;;;;13.33;100.00;99160.91;5053432;28;19925;-80
2021/06/03 04:34:32;;;;;;;;;;;;;;;13.31;100.00;99157.75;5054805;28;19970;-80
2021/06/03 04:36:59;;;;;;;;;;;;;;;13.30;100.00;99164.59;5053691;28;20023;-79
2021/06/03 04:39:28;;;;;;;;;;;;;;;13.36;100.00;99163.59;5036996;28;20479;-80
2021/06/03 04:41:55;;;;;;;;;;;;;;;13.36;100.00;99168.44;5054728;28;19940;-80
2021/06/03 04:44:22;;;;;;;;;;;;;;;13.30;100.00;99162.56;5084330;28;20283;-80
2021/06/03 04:46:50;;;;;;;;;;;;;;;13.22;100.00;99169.59;5054475;28;19931;-80
2021/06/03 04:49:17;;;;;;;;;;;;;;;13.29;100.00;99168.63;5054563;28;20011;-80
2021/06/03 04:51:44;;;;;;;;;;;;;;;13.29;100.00;99168.63;5054512;28;19929;-79
2021/06/03 04:54:13;;;;;;;;;;;;;;;13.35;100.00;99173.28;5053187;28;20120;-80
2021/06/03 04:56:40;;;;;;;;;;;;;;;13.40;100.00;99178.34;5053474;28;19999;-80
2021/06/03 04:59:07;;;;;;;;;;;;;;;13.47;100.00;99180.19;5054422;28;19951;-79
2021/06/03 05:01:35;;;;;;;;;;;;;;;13.54;100.00;99180.00;5039986;28;19968;-79
2021/06/03 05:04:02;;;;;;;;;;;;;;;13.51;100.00;99180.91;5054197;28;19925;-80
2021/06/03 05:06:29;;;;;;;;;;;;;;;13.54;100.00;99177.97;5086263;28;20364;-79
2021/06/03 05:08:57;;;;;;;;;;;;;;;13.53;100.00;99178.41;5053004;28;19932;-80
2021/06/03 05:11:24;;;;;;;;;;;;;;;13.49;100.00;99186.16;5054038;28;19936;-80
2021/06/03 05:13:51;;;;;;;;;;;;;;;13.50;100.00;99179.28;5052997;28;19925;-79
2021/06/03 05:16:18;;;;;;;;;;;;;;;13.55;100.00;99175.97;5054032;28;20028;-80
2021/06/03 05:18:46;;;;;;;;;;;;;;;13.67;100.00;99178.06;5053953;28;19925;-80
2021/06/03 05:21:13;;;;;;;;;;;;;;;13.70;100.00;99177.16;5053962;28;20287;-80
2021/06/03 05:23:40;;;;;;;;;;;;;;;13.79;100.00;99185.75;5053795;28;19928;-79
2021/06/03 05:26:07;;;;;;;;;;;;;;;13.87;100.00;99192.75;5053881;28;19986;-79
2021/06/03 05:28:34;;;;;;;;;;;;;;;13.94;100.00;99187.75;5053811;28;19932;-80
2021/06/03 05:31:01;;;;;;;;;;;;;;;14.00;100.00;99194.38;5039563;28;20007;-80
2021/06/03 05:33:29;;;;;;;;;;;;;;;14.14;100.00;99184.78;5053886;28;19932;-80
2021/06/03 05:35:56;;;;;;;;;;;;;;;14.19;100.00;99181.44;5052676;28;19932;-80
2021/06/03 05:38:24;;;;;;;;;;;;;;;14.20;100.00;99180.19;5053690;28;19929;-80
2021/06/03 05:40:51;;;;;;;;;;;;;;;14.22;100.00;99180.53;5053580;28;19935;-80
2021/06/03 05:43:18;;;;;;;;;;;;;;;14.19;100.00;99182.19;5053365;28;19940;-80
2021/06/03 05:45:45;;;;;;;;;;;;;;;14.17;100.00;99178.25;5053531;28;20320;-80
2021/06/03 05:48:12;;;;;;;;;;;;;;;14.17;100.00;99175.44;5053591;28;19951;-79
2021/06/03 05:50:40;;;;;;;;;;;;;;;13.97;100.00;99177.63;5053713;28;19962;-78
2021/06/03 05:53:07;;;;;;;;;;;;;;;14.11;100.00;99180.84;5053795;28;19929;-79
2021/06/03 05:55:34;;;;;;;;;;;;;;;14.09;100.00;99177.69;5053635;28;20015;-81
2021/06/03 05:58:01;;;;;;;;;;;;;;;14.07;100.00;99184.97;5052415;28;19924;-78
2021/06/03 06:00:30;;;;;;;;;;;;;;;13.93;100.00;99179.75;5052340;28;19929;-80
2021/06/03 06:03:01;;;;;;;;;;;;;;;14.02;100.00;99183.50;5053147;28;19925;-81
2021/06/03 06:08:15;;;;;;;;;;;;;;;13.97;100.00;99183.25;5053113;28;19933;-81
2021/06/03 06:10:43;;;;;;;;;;;;;;;14.02;100.00;99186.31;5051772;28;19925;-81
2021/06/03 06:13:14;;;;;;;;;;;;;;;14.09;100.00;99182.50;5052572;28;20015;-80
2021/06/03 06:15:41;;;;;;;;;;;;;;;14.06;100.00;99184.19;5052921;28;19925;-80
2021/06/03 06:18:09;;;;;;;;;;;;;;;14.06;100.00;99189.00;5052940;28;19925;-80
2021/06/03 06:20:38;;;;;;;;;;;;;;;14.06;100.00;99194.63;5052804;28;20596;-80
2021/06/03 06:23:06;;;;;;;;;;;;;;;14.01;100.00;99192.38;5052671;28;19925;-80
2021/06/03 06:25:33;;;;;;;;;;;;;;;14.19;100.00;99187.03;5052869;28;19929;-80
2021/06/03 06:28:00;;;;;;;;;;;;;;;14.30;100.00;99193.97;5052164;28;19931;-80
2021/06/03 06:30:27;;;;;;;;;;;;;;;14.30;100.00;99198.78;5052457;28;19936;-80
2021/06/03 06:32:55;;;;;;;;;;;;;;;14.16;100.00;99193.56;5052665;28;19936;-81
2021/06/03 06:35:22;;;;;;;;;;;;;;;14.37;100.00;99198.59;5044795;28;20245;-80
2021/06/03 06:37:49;;;;;;;;;;;;;;;14.19;100.00;99181.44;5050899;28;19932;-80
2021/06/03 06:40:16;;;;;;;;;;;;;;;14.30;100.00;99193.97;5052505;28;20009;-80
2021/06/03 06:42:45;;;;;;;;;;;;;;;14.48;100.00;99196.25;5050763;28;19929;-80
2021/06/03 06:45:12;;;;;;;;;;;;;;;14.49;100.00;99189.41;5051303;28;19931;-80
2021/06/03 06:47:39;;;;;;;;;;;;;;;14.47;100.00;99191.88;5051203;28;19925;-80
2021/06/03 06:50:07;;;;;;;;;;;;;;;14.59;100.00;99198.72;5051444;28;19967;-80
2021/06/03 06:52:35;;;;;;;;;;;;;;;14.60;100.00;99189.09;5052893;28;19979;-80
2021/06/03 06:55:06;;;;;;;;;;;;;;;14.62;100.00;99180.97;5053480;28;19932;-80
2021/06/03 06:57:33;;;;;;;;;;;;;;;14.52;100.00;99194.13;5056030;28;20023;-80
2021/06/03 07:00:01;;;;;;;;;;;;;;;14.53;100.00;99184.44;5038735;28;20280;-80
2021/06/03 07:02:28;;;;;;;;;;;;;;;14.27;100.00;99183.59;5056331;28;19932;-80
2021/06/03 07:04:55;;;;;;;;;;;;;;;14.39;100.00;99196.09;5056287;28;19932;-80
2021/06/03 07:07:22;;;;;;;;;;;;;;;14.40;100.00;99186.47;5056111;28;20138;-80
2021/06/03 07:09:49;;;;;;;;;;;;;;;14.45;100.00;99197.13;5056340;28;19925;-80
2021/06/03 07:12:17;;;;;;;;;;;;;;;14.68;100.00;99208.09;5056102;28;19964;-80
2021/06/03 07:14:44;;;;;;;;;;;;;;;14.87;100.00;99193.06;5056046;28;19936;-79
2021/06/03 07:17:11;;;;;;;;;;;;;;;14.82;100.00;99195.63;5056005;28;19979;-80
2021/06/03 07:19:38;;;;;;;;;;;;;;;14.88;100.00;99194.63;5056205;28;19924;-80
2021/06/03 07:22:06;;;;;;;;;;;;;;;14.81;100.00;99194.84;5056024;28;19932;-80
2021/06/03 07:24:35;;;;;;;;;;;;;;;14.80;100.00;99195.31;5056111;28;19971;-80
2021/06/03 07:27:03;;;;;;;;;;;;;;;14.95;100.00;99197.22;5055730;28;20296;-79
2021/06/03 07:29:30;;;;;;;;;;;;;;;14.93;100.00;99196.88;5063717;28;19978;-79
2021/06/03 07:31:58;;;;;;;;;;;;;;;15.10;100.00;99191.94;5061473;28;19947;-78
2021/06/03 07:34:25;;;;;;;;;;;;;;;15.04;100.00;99199.38;5055613;28;19925;-79
2021/06/03 07:36:53;;;;;;;;;;;;;;;14.91;100.00;99204.97;5055889;28;19925;-79
2021/06/03 07:39:21;;;;;;;;;;;;;;;15.12;100.00;99190.22;5055378;28;19931;-79
2021/06/03 07:41:49;;;;;;;;;;;;;;;15.30;100.00;99190.44;5054552;28;20019;-79
2021/06/03 07:44:16;;;;;;;;;;;;;;;15.38;100.00;99193.84;5054891;28;19925;-81
2021/06/03 07:46:45;;;;;;;;;;;;;;;15.45;100.00;99194.41;5055173;28;19947;-80
2021/06/03 07:49:13;;;;;;;;;;;;;;;15.48;100.00;99189.91;5055326;28;19925;-78
2021/06/03 07:51:41;;;;;;;;;;;;;;;15.57;100.00;99185.13;5055453;28;19928;-79
2021/06/03 07:54:09;;;;;;;;;;;;;;;15.63;100.00;99188.19;5050102;28;19976;-80
2021/06/03 07:56:38;;;;;;;;;;;;;;;15.65;100.00;99189.28;5047856;28;19929;-80
2021/06/03 07:59:05;;;;;;;;;;;;;;;15.68;100.00;99177.09;5050253;28;20387;-80
2021/06/03 08:01:33;;;;;;;;;;;;;;;15.58;100.00;99181.09;5052299;28;19951;-83
2021/06/03 08:04:00;;;;;;;;;;;;;;;15.63;100.00;99186.13;5017506;28;19925;-84
2021/06/03 08:06:27;;;;;;;;;;;;;;;15.82;100.00;99184.28;5034058;28;19947;-79
2021/06/03 08:08:54;;;;;;;;;;;;;;;15.84;100.00;99193.06;5051304;28;19959;-83
2021/06/03 08:11:21;;;;;;;;;;;;;;;16.16;100.00;99187.84;5050696;28;20438;-84
2021/06/03 08:13:48;;;;;;;;;;;;;;;15.98;100.00;99182.06;5050658;28;20019;-81
2021/06/03 08:16:16;;;;;;;;;;;;;;;16.37;100.00;99174.22;5051136;28;19932;-84
2021/06/03 08:18:43;;;;;;;;;;;;;;;16.50;100.00;99183.41;5051054;28;19933;-83
2021/06/03 08:21:10;;;;;;;;;;;;;;;16.89;100.00;99177.06;5053171;28;20454;-84
2021/06/03 08:23:37;;;;;;;;;;;;;;;17.26;100.00;99167.47;5050947;28;20387;-84
2021/06/03 08:26:04;;;;;;;;;;;;;;;17.39;100.00;99159.66;5035062;28;19936;-87
2021/06/03 08:28:31;;;;;;;;;;;;;;;17.25;100.00;99160.28;5035009;28;19928;-86
2021/06/03 08:31:00;;;;;;;;;;;;;;;17.28;100.00;99159.34;5052153;28;19925;-86
2021/06/03 08:33:28;;;;;;;;;;;;;;;17.09;100.00;99155.66;5067339;28;19972;-87
2021/06/03 08:35:55;;;;;;;;;;;;;;;17.14;100.00;99154.28;5084718;28;19931;-87
2021/06/03 08:38:23;;;;;;;;;;;;;;;16.95;100.00;99153.41;5083474;28;20011;-83
2021/06/03 08:40:52;;;;;;;;;;;;;;;17.11;100.00;99158.03;5049187;28;20030;-82
2021/06/03 08:43:23;;;;;;;;;;;;;;;17.13;100.00;99152.72;5048300;28;20412;-83
2021/06/03 08:45:50;;;;;;;;;;;;;;;17.11;100.00;99160.84;5048878;28;19925;-82
2021/06/03 08:48:17;;;;;;;;;;;;;;;16.57;100.00;99154.97;5045439;28;19925;-83
2021/06/03 08:50:46;;;;;;;;;;;;;;;16.42;100.00;99154.66;5051070;28;20430;-82
2021/06/03 08:53:14;;;;;;;;;;;;;;;16.35;100.00;99151.31;5050544;28;20675;-84
2021/06/03 08:58:31;;;;;;;;;;;;;;;16.76;100.00;99156.63;5044320;28;20468;-85
2021/06/03 09:00:59;;;;;;;;;;;;;;;17.14;100.00;99162.75;5077820;28;19932;-84
2021/06/03 09:03:27;;;;;;;;;;;;;;;17.01;100.00;99159.25;5047880;28;19959;-85
2021/06/03 09:05:55;;;;;;;;;;;;;;;17.00;100.00;99160.47;5052023;28;20877;-84
2021/06/03 09:08:26;;;;;;;;;;;;;;;17.25;100.00;99154.63;5049820;28;19925;-84
2021/06/03 09:10:54;;;;;;;;;;;;;;;17.36;100.00;99158.56;5046468;28;19929;-84
2021/06/03 09:13:26;;;;;;;;;;;;;;;17.32;100.00;99157.16;5050470;28;19925;-83
2021/06/03 09:15:55;;;;;;;;;;;;;;;17.50;100.00;99148.75;5050203;28;20096;-83
2021/06/03 09:18:36;;;;;;;;;;;;;;;17.33;100.00;99155.88;5045487;28;20019;-83
2021/06/03 09:21:17;;;;;;;;;;;;;;;17.49;100.00;99147.19;5069058;28;19925;-82
2021/06/03 09:23:46;;;;;;;;;;;;;;;17.64;100.00;99163.06;5046786;28;20517;-87
2021/06/03 09:26:17;;;;;;;;;;;;;;;17.98;100.00;99159.94;5038014;28;19924;-80
2021/06/03 09:28:45;;;;;;;;;;;;;;;17.89;100.00;99154.28;5050573;28;19924;-78
2021/06/03 09:31:16;;;;;;;;;;;;;;;18.23;100.00;99161.66;5050782;28;20464;-84
2021/06/03 09:33:46;;;;;;;;;;;;;;;18.40;100.00;99159.31;5049623;28;19929;-80
2021/06/03 09:36:14;;;;;;;;;;;;;;;18.99;100.00;99156.44;5049222;28;19925;-80
2021/06/03 09:38:57;;;;;;;;;;;;;;;19.20;100.00;99148.97;5046836;28;19931;-78
2021/06/03 09:41:25;;;;;;;;;;;;;;;19.63;100.00;99149.22;5047309;28;19933;-79
2021/06/03 09:44:21;;;;;;;;;;;;;;;19.97;100.00;99147.06;5049527;28;20004;-79
2021/06/03 09:46:50;;;;;;;;;;;;;;;20.19;100.00;99144.72;5037300;28;19932;-79
2021/06/03 09:49:22;;;;;;;;;;;;;;;20.05;100.00;99134.09;5048404;28;19983;-80
2021/06/03 09:51:51;;;;;;;;;;;;;;;19.77;100.00;99138.41;5048758;28;19929;-80
2021/06/03 09:54:20;;;;;;;;;;;;;;;19.64;100.00;99139.44;5048130;28;19925;-80
2021/06/03 09:56:51;;;;;;;;;;;;;;;19.55;100.00;99153.66;5047883;28;19975;-80
2021/06/03 09:59:30;;;;;;;;;;;;;;;19.05;100.00;99148.88;5048246;28;20020;-81
2021/06/03 10:01:58;;;;;;;;;;;;;;;19.05;100.00;99153.78;5082240;28;19925;-82
2021/06/03 10:04:30;;;;;;;;;;;;;;;19.34;100.00;99154.75;5031869;28;20515;-82
2021/06/03 10:07:01;;;;;;;;;;;;;;;19.85;100.00;99146.06;5047660;28;19932;-82
2021/06/03 10:09:37;;;;;;;;;;;;;;;20.46;100.00;99150.13;5031777;28;19968;-82
2021/06/03 10:12:05;;;;;;;;;;;;;;;20.73;100.00;99144.16;5049437;28;20006;-83
2021/06/03 10:14:33;;;;;;;;;;;;;;;20.99;100.00;99143.06;5048379;28;19924;-82
2021/06/03 10:17:13;;;;;;;;;;;;;;;20.69;100.00;99143.59;5047957;28;19968;-82
2021/06/03 10:19:40;;;;;;;;;;;;;;;21.30;100.00;99140.47;5046870;28;19925;-81
2021/06/03 10:22:09;;;;;;;;;;;;;;;21.71;100.00;99137.66;5048743;28;19924;-84
2021/06/03 10:24:50;;;;;;;;;;;;;;;21.50;100.00;99142.56;5045852;28;19931;-83
2021/06/03 10:27:18;;;;;;;;;;;;;;;21.36;100.00;99146.22;5049448;28;19924;-83
2021/06/03 10:29:48;;;;;;;;;;;;;;;21.24;100.00;99150.19;5053533;28;19960;-83
2021/06/03 10:32:16;;;;;;;;;;;;;;;21.48;100.00;99153.63;5047949;28;19925;-86
2021/06/03 10:34:43;;;;;;;;;;;;;;;21.07;100.00;99151.97;5069577;28;20257;-85
2021/06/03 10:37:12;;;;;;;;;;;;;;;20.86;100.00;99153.16;5016177;28;19932;-90
2021/06/03 10:39:39;;;;;;;;;;;;;;;20.75;100.00;99158.66;5069258;28;20311;-90
2021/06/03 10:42:10;;;;;;;;;;;;;;;20.43;100.00;99159.63;5037118;28;19924;-87
2021/06/03 10:44:37;;;;;;;;;;;;;;;19.84;100.00;99169.25;5051228;28;20402;-82
2021/06/03 10:47:06;;;;;;;;;;;;;;;19.69;100.00;99161.44;5053457;28;19959;-82
2021/06/03 10:49:45;;;;;;;;;;;;;;;19.85;100.00;99170.78;5053289;28;20028;-82
2021/06/03 10:52:14;;;;;;;;;;;;;;;20.09;100.00;99174.38;5052003;28;19932;-83
2021/06/03 10:54:50;;;;;;;;;;;;;;;19.44;100.00;99178.94;5054212;28;19929;-88
2021/06/03 10:57:18;;;;;;;;;;;;;;;18.58;100.00;99188.38;5053026;28;19982;-89
2021/06/03 10:59:46;;;;;;;;;;;;;;;18.62;100.00;99186.13;5053491;28;19925;-87
2021/06/03 11:02:15;;;;;;;;;;;;;;;19.39;100.00;99178.78;5053957;28;19924;-88
2021/06/03 11:04:43;;;;;;;;;;;;;;;20.16;100.00;99180.50;5054696;28;19924;-89
2021/06/03 11:07:11;;;;;;;;;;;;;;;19.94;100.00;99184.91;5039137;28;19925;-85
2021/06/03 11:09:43;;;;;;;;;;;;;;;20.05;100.00;99182.31;5056519;28;19990;-85
2021/06/03 11:12:12;;;;;;;;;;;;;;;20.69;100.00;99178.41;5055411;28;19932;-86
2021/06/03 11:15:00;;;;;;;;;;;;;;;20.83;100.00;99176.84;5055507;28;19931;-84
2021/06/03 11:17:46;;;;;;;;;;;;;;;20.03;100.00;99176.31;5055464;28;19927;-86
2021/06/03 11:20:13;;;;;;;;;;;;;;;19.35;100.00;99172.53;5036318;28;19933;-87
2021/06/03 11:22:40;;;;;;;;;;;;;;;19.73;100.00;99174.66;5056342;28;19924;-86
2021/06/03 11:25:07;;;;;;;;;;;;;;;19.68;100.00;99168.41;5054885;28;20383;-86
2021/06/03 11:27:36;;;;;;;;;;;;;;;19.65;100.00;99169.38;5056094;28;20020;-86
2021/06/03 11:30:05;;;;;;;;;;;;;;;20.31;100.00;99169.97;5054648;28;19994;-86
2021/06/03 11:32:34;;;;;;;;;;;;;;;19.97;100.00;99161.25;5054050;28;20015;-85
2021/06/03 11:35:03;;;;;;;;;;;;;;;20.25;100.00;99163.41;5054355;28;19925;-85
2021/06/03 11:37:37;;;;;;;;;;;;;;;19.92;100.00;99164.78;5055832;28;19924;-86
2021/06/03 11:40:04;;;;;;;;;;;;;;;20.70;100.00;99167.84;5087253;28;20372;-86
2021/06/03 11:42:35;;;;;;;;;;;;;;;21.33;100.00;99159.38;5054572;28;19931;-86
2021/06/03 11:45:07;;;;;;;;;;;;;;;20.34;100.00;99166.16;5071577;28;19925;-86
2021/06/03 11:47:38;;;;;;;;;;;;;;;21.13;100.00;99164.19;5054877;28;19924;-86
2021/06/03 11:50:14;;;;;;;;;;;;;;;20.97;100.00;99164.72;5088033;28;19924;-85
2021/06/03 11:52:54;;;;;;;;;;;;;;;21.17;100.00;99156.28;5038747;28;19925;-83
2021/06/03 11:55:39;;;;;;;;;;;;;;;21.20;100.00;99158.91;5071686;28;19925;-83
2021/06/03 11:58:12;;;;;;;;;;;;;;;21.05;100.00;99157.38;5054636;28;19928;-82
2021/06/03 12:00:40;;;;;;;;;;;;;;;21.60;100.00;99155.34;5071457;28;20347;-83
2021/06/03 12:03:24;;;;;;;;;;;;;;;21.31;100.00;99161.16;5055360;28;19931;-83
2021/06/03 12:05:55;;;;;;;;;;;;;;;21.76;100.00;99152.00;5038279;28;19925;-83
2021/06/03 12:08:31;;;;;;;;;;;;;;;21.78;100.00;99149.41;5071352;28;19925;-82
2021/06/03 12:10:58;;;;;;;;;;;;;;;21.76;100.00;99146.31;5055815;28;19924;-81
2021/06/03 12:13:25;;;;;;;;;;;;;;;21.94;100.00;99142.38;5055043;28;19925;-80
2021/06/03 12:15:53;;;;;;;;;;;;;;;21.24;100.00;99138.81;5054781;28;19925;-80
2021/06/03 12:18:20;;;;;;;;;;;;;;;20.79;100.00;99143.00;5053859;28;19925;-80
2021/06/03 12:20:55;;;;;;;;;;;;;;;20.75;100.00;99152.97;5040721;28;19932;-80
2021/06/03 12:23:24;;;;;;;;;;;;;;;20.52;100.00;99151.00;5054835;28;19925;-80
2021/06/03 12:25:51;;;;;;;;;;;;;;;20.40;100.00;99152.84;5054731;28;19932;-80
2021/06/03 12:28:18;;;;;;;;;;;;;;;20.74;100.00;99145.72;5055035;28;20145;-79
2021/06/03 12:30:45;;;;;;;;;;;;;;;20.61;100.00;99142.41;5053020;28;19925;-81
2021/06/03 12:33:14;;;;;;;;;;;;;;;20.99;100.00;99150.81;5099383;28;19924;-81
2021/06/03 12:35:44;;;;;;;;;;;;;;;21.49;100.00;99143.06;5053580;28;19964;-81
2021/06/03 12:38:28;;;;;;;;;;;;;;;21.98;100.00;99145.78;5055799;28;19924;-80
2021/06/03 12:40:58;;;;;;;;;;;;;;;22.22;100.00;99144.25;5057774;28;19925;-81
2021/06/03 12:43:32;;;;;;;;;;;;;;;22.44;100.00;99138.81;5058030;28;19929;-81
2021/06/03 12:45:59;;;;;;;;;;;;;;;20.93;100.00;99144.25;5053228;28;19925;-80
2021/06/03 12:48:30;;;;;;;;;;;;;;;20.82;100.00;99150.53;5055153;28;19952;-80
2021/06/03 12:50:58;;;;;;;;;;;;;;;21.26;100.00;99150.47;5056235;28;20003;-81